createdAt,value
2023-02-05T00:02:59.445Z,1.10
2023-02-05T00:06:09.566Z,1.10
2023-02-05T00:09:18.230Z,0.80
2023-02-05T00:12:28.865Z,0.97
2023-02-05T00:15:42.103Z,1.20
2023-02-05T00:18:55.972Z,1.00
2023-02-05T00:22:08.701Z,0.90
2023-02-05T00:25:19.173Z,0.93
2023-02-05T00:28:31.043Z,1.00
2023-02-05T00:31:41.348Z,1.10
2023-02-05T00:34:49.875Z,1.07
2023-02-05T00:38:01.279Z,0.80
2023-02-05T00:41:10.253Z,0.90
2023-02-05T00:44:21.526Z,0.90
2023-02-05T00:47:33.075Z,1.10
2023-02-05T00:50:47.865Z,0.80
2023-02-05T00:54:08.400Z,1.00
2023-02-05T00:57:25.055Z,1.07
2023-02-05T01:00:34.935Z,1.13
2023-02-05T01:03:49.602Z,1.00
2023-02-05T01:07:00.119Z,1.13
2023-02-05T01:10:21.758Z,0.90
2023-02-05T01:13:32.411Z,0.97
2023-02-05T01:16:44.025Z,1.43
2023-02-05T01:19:58.561Z,1.10
2023-02-05T01:23:10.248Z,1.03
2023-02-05T01:26:30.217Z,1.00
2023-02-05T01:29:38.668Z,1.00
2023-02-05T01:32:48.032Z,1.10
2023-02-05T01:36:04.217Z,0.77
2023-02-05T01:39:13.997Z,1.10
2023-02-05T01:42:29.819Z,1.10
2023-02-05T01:46:10.834Z,0.97
2023-02-05T01:49:27.336Z,0.80
2023-02-05T01:52:41.295Z,0.80
2023-02-05T01:56:04.933Z,1.33
2023-02-05T01:59:22.794Z,0.93
2023-02-05T02:02:33.261Z,0.67
2023-02-05T02:05:43.446Z,0.83
2023-02-05T02:08:54.865Z,0.93
2023-02-05T02:12:04.142Z,0.70
2023-02-05T02:15:20.950Z,1.17
2023-02-05T02:18:30.987Z,1.47
2023-02-05T02:22:06.871Z,1.07
2023-02-05T02:25:49.751Z,1.20
2023-02-05T02:29:07.288Z,0.93
2023-02-05T02:32:23.181Z,1.00
2023-02-05T02:35:38.442Z,0.80
2023-02-05T02:39:04.146Z,1.00
2023-02-05T02:42:16.648Z,0.93
2023-02-05T02:45:49.820Z,1.00
2023-02-05T02:49:06.437Z,1.30
2023-02-05T02:52:21.357Z,1.27
2023-02-05T02:55:34.382Z,1.00
2023-02-05T02:58:48.543Z,1.03
2023-02-05T03:02:09.810Z,1.23
2023-02-05T03:05:25.056Z,1.00
2023-02-05T03:08:41.661Z,1.07
2023-02-05T03:11:53.235Z,1.00
2023-02-05T03:15:06.184Z,1.27
2023-02-05T03:18:21.695Z,1.00
2023-02-05T03:21:35.228Z,0.83
2023-02-05T03:24:45.853Z,0.73
2023-02-05T03:27:56.320Z,0.93
2023-02-05T03:31:17.169Z,1.00
2023-02-05T03:34:43.757Z,0.87
2023-02-05T03:38:04.032Z,1.17
2023-02-05T03:41:23.452Z,0.70
2023-02-05T03:45:09.345Z,1.03
2023-02-05T03:48:48.698Z,0.87
2023-02-05T03:52:07.484Z,1.10
2023-02-05T03:55:21.178Z,1.13
2023-02-05T03:58:36.950Z,0.90
2023-02-05T04:01:50.783Z,0.80
2023-02-05T04:05:01.889Z,1.00
2023-02-05T04:08:12.880Z,1.13
2023-02-05T04:11:26.674Z,1.00
2023-02-05T04:14:36.265Z,1.20
2023-02-05T04:17:45.118Z,1.10
2023-02-05T04:20:53.605Z,0.87
2023-02-05T04:24:11.870Z,0.77
2023-02-05T04:27:22.025Z,0.90
2023-02-05T04:30:31.277Z,0.90
2023-02-05T04:33:41.792Z,0.90
2023-02-05T04:36:52.675Z,0.70
2023-02-05T04:40:02.485Z,0.83
2023-02-05T04:43:15.583Z,0.73
2023-02-05T04:46:24.540Z,0.80
2023-02-05T04:49:33.707Z,0.57
2023-02-05T04:52:43.552Z,0.80
2023-02-05T04:55:57.325Z,0.60
2023-02-05T04:59:06.930Z,0.83
2023-02-05T05:02:27.471Z,0.80
2023-02-05T05:05:38.305Z,1.10
2023-02-05T05:08:47.512Z,0.80
2023-02-05T05:12:00.960Z,1.00
2023-02-05T05:15:10.105Z,0.87
2023-02-05T05:18:18.626Z,0.90
2023-02-05T05:21:29.350Z,0.77
2023-02-05T05:28:07.630Z,0.70
2023-02-05T05:31:33.903Z,0.90
2023-02-05T05:34:47.098Z,0.63
2023-02-05T05:37:58.384Z,0.80
2023-02-05T05:41:30.504Z,0.73
2023-02-05T05:44:42.316Z,0.70
2023-02-05T05:47:51.570Z,0.80
2023-02-05T05:51:00.461Z,0.57
2023-02-05T05:54:10.667Z,1.00
2023-02-05T05:57:21.329Z,1.20
2023-02-05T06:00:36.904Z,0.87
2023-02-05T06:03:45.610Z,0.83
2023-02-05T06:06:57.774Z,1.10
2023-02-05T06:10:12.807Z,1.00
2023-02-05T06:13:22.013Z,0.90
2023-02-05T06:16:34.962Z,0.83
2023-02-05T06:19:47.032Z,0.90
2023-02-05T06:22:57.821Z,0.80
2023-02-05T06:26:08.142Z,1.00
2023-02-05T06:29:20.810Z,0.70
2023-02-05T06:32:31.965Z,0.80
2023-02-05T06:35:41.785Z,0.93
2023-02-05T06:38:50.979Z,1.20
2023-02-05T06:42:03.638Z,1.17
2023-02-05T06:45:15.794Z,0.90
2023-02-05T06:48:25.907Z,1.00
2023-02-05T06:51:35.478Z,0.80
2023-02-05T06:54:47.684Z,0.93
2023-02-05T06:58:03.301Z,0.80
2023-02-05T07:01:21.394Z,1.20
2023-02-05T07:04:33.444Z,0.77
2023-02-05T07:07:42.069Z,0.77
2023-02-05T07:10:53.008Z,0.90
2023-02-05T07:14:03.019Z,0.93
2023-02-05T07:17:13.021Z,0.80
2023-02-05T07:20:27.038Z,1.20
2023-02-05T07:23:41.245Z,1.03
2023-02-05T07:26:52.138Z,1.00
2023-02-05T07:30:00.805Z,1.10
2023-02-05T07:33:09.742Z,0.73
2023-02-05T07:36:20.862Z,1.23
2023-02-05T07:39:30.310Z,1.30
2023-02-05T07:42:40.415Z,0.80
2023-02-05T07:45:57.986Z,0.80
2023-02-05T07:49:06.488Z,0.80
2023-02-05T07:52:19.034Z,1.23
2023-02-05T07:55:28.696Z,0.90
2023-02-05T07:58:37.384Z,1.40
2023-02-05T08:01:49.241Z,1.23
2023-02-05T08:04:57.638Z,0.80
2023-02-05T08:08:11.465Z,0.90
2023-02-05T08:11:21.158Z,0.70
2023-02-05T08:14:31.338Z,1.10
2023-02-05T08:17:39.923Z,1.00
2023-02-05T08:20:48.388Z,1.10
2023-02-05T08:23:58.850Z,0.80
2023-02-05T08:27:07.490Z,0.77
2023-02-05T08:30:20.558Z,1.17
2023-02-05T08:33:30.276Z,0.80
2023-02-05T08:36:41.142Z,0.90
2023-02-05T08:39:54.839Z,1.00
2023-02-05T08:43:06.424Z,1.10
2023-02-05T08:46:21.913Z,1.13
2023-02-05T08:49:31.449Z,1.20
2023-02-05T08:52:47.554Z,1.10
2023-02-05T08:56:11.095Z,0.67
2023-02-05T08:59:20.133Z,0.80
2023-02-05T09:02:32.201Z,1.10
2023-02-05T09:05:41.714Z,1.13
2023-02-05T09:08:52.230Z,1.00
2023-02-05T09:12:05.697Z,1.17
2023-02-05T09:15:15.371Z,1.03
2023-02-05T09:18:25.256Z,1.10
2023-02-05T09:21:36.054Z,1.50
2023-02-05T09:24:46.140Z,1.40
2023-02-05T09:27:56.846Z,0.90
2023-02-05T09:31:09.101Z,1.20
2023-02-05T09:34:17.620Z,1.20
2023-02-05T09:37:27.098Z,1.33
2023-02-05T09:40:41.614Z,1.03
2023-02-05T09:43:56.255Z,1.20
2023-02-05T09:47:11.434Z,1.60
2023-02-05T09:50:27.679Z,1.00
2023-02-05T09:53:43.994Z,1.53
2023-02-05T09:56:55.008Z,1.60
2023-02-05T10:00:14.827Z,1.17
2023-02-05T10:03:30.599Z,1.27
2023-02-05T10:07:08.866Z,0.90
2023-02-05T10:10:25.766Z,0.93
2023-02-05T10:13:37.938Z,1.20
2023-02-05T10:17:05.288Z,1.10
2023-02-05T10:20:30.341Z,1.20
2023-02-05T10:23:55.966Z,1.00
2023-02-05T10:27:15.180Z,1.27
2023-02-05T10:30:32.427Z,1.47
2023-02-05T10:33:51.708Z,1.00
2023-02-05T10:37:05.097Z,1.20
2023-02-05T10:40:16.449Z,0.90
2023-02-05T10:43:33.228Z,1.30
2023-02-05T10:46:45.551Z,1.13
2023-02-05T10:50:04.594Z,1.00
2023-02-05T10:53:18.207Z,1.30
2023-02-05T10:56:30.091Z,1.00
2023-02-05T10:59:54.570Z,0.90
2023-02-05T11:03:05.877Z,1.37
2023-02-05T11:06:15.777Z,0.70
2023-02-05T11:09:33.829Z,1.20
2023-02-05T11:12:47.574Z,1.10
2023-02-05T11:15:57.854Z,1.10
2023-02-05T11:19:14.986Z,1.10
2023-02-05T11:22:32.243Z,1.10
2023-02-05T11:25:50.880Z,0.97
2023-02-05T11:28:59.601Z,1.23
2023-02-05T11:32:21.098Z,0.77
2023-02-05T11:35:33.226Z,1.00
2023-02-05T11:38:50.581Z,1.10
2023-02-05T11:41:59.103Z,1.10
2023-02-05T11:45:16.911Z,1.00
2023-02-05T11:48:34.915Z,1.00
2023-02-05T11:51:45.848Z,1.40
2023-02-05T11:54:56.475Z,1.33
2023-02-05T11:58:06.602Z,0.90
2023-02-05T12:01:25.234Z,1.40
2023-02-05T12:04:45.708Z,1.03
2023-02-05T12:08:01.139Z,1.00
2023-02-05T12:12:03.789Z,1.00
2023-02-05T12:15:20.887Z,1.33
2023-02-05T12:18:45.759Z,1.00
2023-02-05T12:22:01.575Z,1.20
2023-02-05T12:25:21.479Z,1.30
2023-02-05T12:28:45.293Z,1.13
2023-02-05T12:32:08.664Z,1.50
2023-02-05T12:35:45.034Z,1.30
2023-02-05T12:39:08.262Z,1.77
2023-02-05T12:42:36.298Z,1.50
2023-02-05T12:45:56.390Z,1.57
2023-02-05T12:49:21.488Z,1.37
2023-02-05T12:52:56.785Z,1.20
2023-02-05T12:56:29.444Z,1.60
2023-02-05T12:59:43.193Z,1.40
2023-02-05T13:02:58.734Z,1.57
2023-02-05T13:06:11.924Z,1.60
2023-02-05T13:09:26.392Z,1.80
2023-02-05T13:12:40.459Z,1.73
2023-02-05T13:15:59.481Z,1.70
2023-02-05T13:19:26.724Z,1.30
2023-02-05T13:22:57.058Z,1.70
2023-02-05T13:26:33.162Z,1.50
2023-02-05T13:29:51.243Z,1.43
2023-02-05T13:33:04.364Z,1.20
2023-02-05T13:36:44.132Z,1.20
2023-02-05T13:40:36.416Z,1.13
2023-02-05T13:44:23.520Z,1.40
2023-02-05T13:47:49.771Z,1.17
2023-02-05T13:51:52.093Z,1.10
2023-02-05T13:55:47.927Z,1.27
2023-02-05T13:59:00.371Z,1.30
2023-02-05T14:02:31.104Z,1.50
2023-02-05T14:05:45.064Z,1.47
2023-02-05T14:09:01.305Z,1.37
2023-02-05T14:12:14.128Z,1.30
2023-02-05T14:15:38.347Z,1.23
2023-02-05T14:18:52.257Z,1.30
2023-02-05T14:22:08.308Z,1.47
2023-02-05T14:25:52.275Z,1.53
2023-02-05T14:29:02.360Z,1.40
2023-02-05T14:32:16.067Z,1.33
2023-02-05T14:35:32.969Z,1.70
2023-02-05T14:38:47.633Z,1.50
2023-02-05T14:41:59.996Z,1.43
2023-02-05T14:45:19.113Z,1.60
2023-02-05T14:48:30.508Z,1.40
2023-02-05T14:51:44.919Z,1.50
2023-02-05T14:55:00.357Z,1.30
2023-02-05T14:58:28.313Z,1.90
2023-02-05T15:01:54.592Z,2.33
2023-02-05T15:05:09.442Z,2.70
2023-02-05T15:08:23.662Z,2.37
2023-02-05T15:11:54.954Z,2.30
2023-02-05T15:15:28.072Z,1.97
2023-02-05T15:18:43.411Z,1.60
2023-02-05T15:21:55.221Z,1.63
2023-02-05T15:25:25.020Z,1.97
2023-02-05T15:28:41.715Z,1.60
2023-02-05T15:31:55.353Z,1.40
2023-02-05T15:35:11.128Z,1.40
2023-02-05T15:38:30.741Z,1.73
2023-02-05T15:41:42.787Z,1.90
2023-02-05T15:44:52.515Z,1.90
2023-02-05T15:48:02.773Z,1.43
2023-02-05T15:51:23.580Z,1.50
2023-02-05T15:54:37.152Z,1.53
2023-02-05T15:57:48.855Z,1.63
2023-02-05T16:00:59.115Z,2.00
2023-02-05T16:04:19.179Z,2.53
2023-02-05T16:07:30.680Z,1.80
2023-02-05T16:10:39.175Z,2.10
2023-02-05T16:13:48.049Z,1.83
2023-02-05T16:17:04.813Z,2.30
2023-02-05T16:20:26.657Z,2.83
2023-02-05T16:23:42.791Z,2.80
2023-02-05T16:26:56.126Z,2.63
2023-02-05T16:30:08.416Z,2.53
2023-02-05T16:33:27.967Z,2.20
2023-02-05T16:36:40.193Z,2.40
2023-02-05T16:39:54.612Z,2.33
2023-02-05T16:43:19.858Z,2.30
2023-02-05T16:46:29.951Z,2.70
2023-02-05T16:49:38.539Z,2.00
2023-02-05T16:52:59.272Z,2.73
2023-02-05T16:56:18.244Z,2.50
2023-02-05T16:59:30.315Z,2.57
2023-02-05T17:02:40.674Z,2.50
2023-02-05T17:05:56.460Z,2.43
2023-02-05T17:09:06.400Z,2.60
2023-02-05T17:12:40.957Z,2.63
2023-02-05T17:15:49.512Z,2.83
2023-02-05T17:18:59.772Z,3.00
2023-02-05T17:22:21.450Z,2.60
2023-02-05T17:25:31.361Z,2.70
2023-02-05T17:28:44.473Z,2.80
2023-02-05T17:31:52.908Z,2.87
2023-02-05T17:35:01.610Z,2.57
2023-02-05T17:38:10.045Z,2.73
2023-02-05T17:41:38.006Z,3.13
2023-02-05T17:44:47.998Z,3.00
2023-02-05T17:47:56.364Z,2.97
2023-02-05T17:51:04.872Z,2.50
2023-02-05T17:54:15.208Z,3.03
2023-02-05T17:57:24.443Z,2.90
2023-02-05T18:00:34.565Z,3.20
2023-02-05T18:03:43.180Z,2.37
2023-02-05T18:06:51.698Z,3.20
2023-02-05T18:10:00.601Z,2.50
2023-02-05T18:13:09.110Z,2.90
2023-02-05T18:16:19.033Z,2.67
2023-02-05T18:19:29.416Z,3.10
2023-02-05T18:22:37.967Z,2.83
2023-02-05T18:25:46.534Z,3.70
2023-02-05T18:28:55.053Z,3.33
2023-02-05T18:32:05.887Z,3.40
2023-02-05T18:35:14.983Z,3.27
2023-02-05T18:38:23.893Z,3.50
2023-02-05T18:41:32.296Z,3.50
2023-02-05T18:44:40.702Z,3.50
2023-02-05T18:47:50.519Z,3.83
2023-02-05T18:50:58.884Z,3.43
2023-02-05T18:54:07.580Z,3.80
2023-02-05T18:57:18.478Z,3.97
2023-02-05T19:00:26.910Z,3.47
2023-02-05T19:03:37.808Z,3.67
2023-02-05T19:06:50.622Z,3.83
2023-02-05T19:09:59.423Z,3.30
2023-02-05T19:13:09.235Z,2.67
2023-02-05T19:16:18.401Z,2.63
2023-02-05T19:19:29.079Z,2.77
2023-02-05T19:22:37.488Z,2.90
2023-02-05T19:25:45.859Z,2.80
2023-02-05T19:28:56.395Z,2.70
2023-02-05T19:32:05.333Z,2.90
2023-02-05T19:35:15.098Z,3.27
2023-02-05T19:38:23.450Z,3.27
2023-02-05T19:41:34.259Z,3.33
2023-02-05T19:44:42.639Z,3.53
2023-02-05T19:47:51.087Z,2.97
2023-02-05T19:51:06.478Z,3.10
2023-02-05T19:54:16.060Z,2.90
2023-02-05T19:57:25.134Z,2.73
2023-02-05T20:00:33.801Z,3.37
2023-02-05T20:03:42.901Z,3.40
2023-02-05T20:06:56.822Z,3.70
2023-02-05T20:10:05.867Z,3.93
2023-02-05T20:13:14.255Z,3.57
2023-02-05T20:16:24.206Z,4.13
2023-02-05T20:19:32.600Z,3.33
2023-02-05T20:22:42.356Z,3.33
2023-02-05T20:25:57.544Z,2.80
2023-02-05T20:29:24.471Z,3.37
2023-02-05T20:32:32.920Z,2.70
2023-02-05T20:35:41.403Z,3.13
2023-02-05T20:38:51.212Z,3.03
2023-02-05T20:42:00.970Z,2.73
2023-02-05T20:45:10.781Z,2.77
2023-02-05T20:48:19.200Z,2.53
2023-02-05T20:51:27.848Z,2.50
2023-02-05T20:54:37.874Z,2.70
2023-02-05T20:57:46.279Z,3.00
2023-02-05T21:00:54.994Z,2.60
2023-02-05T21:04:04.997Z,2.50
2023-02-05T21:07:13.546Z,3.30
2023-02-05T21:10:23.346Z,2.57
2023-02-05T21:13:31.784Z,2.80
2023-02-05T21:16:40.890Z,2.90
2023-02-05T21:19:49.327Z,3.00
2023-02-05T21:22:58.119Z,3.00
2023-02-05T21:26:09.609Z,3.10
2023-02-05T21:29:19.680Z,3.30
2023-02-05T21:32:28.131Z,3.00
2023-02-05T21:35:39.174Z,3.13
2023-02-05T21:38:47.739Z,3.20
2023-02-05T21:41:57.536Z,3.20
2023-02-05T21:45:06.616Z,3.83
2023-02-05T21:48:15.078Z,3.50
2023-02-05T21:51:25.349Z,3.20
2023-02-05T21:54:34.237Z,3.20
2023-02-05T21:57:44.012Z,3.73
2023-02-05T22:00:52.466Z,3.23
2023-02-05T22:04:02.605Z,3.20
2023-02-05T22:07:11.318Z,3.20
2023-02-05T22:10:19.962Z,3.17
2023-02-05T22:13:32.369Z,2.83
2023-02-05T22:16:41.085Z,3.30
2023-02-05T22:19:49.501Z,3.37
2023-02-05T22:22:57.885Z,3.03
2023-02-05T22:26:07.059Z,3.10
2023-02-05T22:29:19.204Z,3.40
2023-02-05T22:32:29.219Z,3.13
2023-02-05T22:35:37.879Z,2.93
2023-02-05T22:38:46.638Z,3.17
2023-02-05T22:41:57.156Z,3.00
2023-02-05T22:45:07.667Z,3.30
2023-02-05T22:48:16.164Z,3.60
2023-02-05T22:51:26.072Z,3.53
2023-02-05T22:54:34.433Z,3.37
2023-02-05T22:57:43.062Z,4.10
2023-02-05T23:00:52.868Z,3.80
2023-02-05T23:04:03.738Z,3.63
2023-02-05T23:07:12.098Z,3.70
2023-02-05T23:10:21.579Z,3.97
2023-02-05T23:13:29.962Z,3.87
2023-02-05T23:16:42.519Z,4.40
2023-02-05T23:19:52.764Z,3.77
2023-02-05T23:23:01.518Z,4.37
2023-02-05T23:26:11.076Z,4.77
2023-02-05T23:29:20.221Z,4.00
2023-02-05T23:32:30.270Z,4.77
2023-02-05T23:35:41.021Z,4.57
2023-02-05T23:38:49.728Z,4.40
2023-02-05T23:41:58.201Z,4.70
2023-02-05T23:45:07.005Z,5.87
2023-02-05T23:48:17.117Z,4.67
2023-02-05T23:51:25.570Z,4.47
2023-02-05T23:54:34.317Z,4.43
2023-02-05T23:57:42.787Z,4.40
